createdAt,value
2023-01-04T00:01:03.916Z,77.60
2023-01-04T00:07:56.153Z,72.70
2023-01-04T00:11:25.205Z,74.20
2023-01-04T00:14:52.527Z,75.20
2023-01-04T00:18:19.766Z,78.50
2023-01-04T00:21:46.743Z,76.00
2023-01-04T00:25:13.612Z,77.90
2023-01-04T00:28:41.601Z,70.30
2023-01-04T00:32:08.666Z,75.90
2023-01-04T00:35:45.808Z,67.80
2023-01-04T00:39:16.938Z,65.10
2023-01-04T00:42:44.015Z,64.20
2023-01-04T00:46:11.681Z,66.00
2023-01-04T00:49:38.814Z,64.00
2023-01-04T00:53:05.970Z,70.60
2023-01-04T00:56:34.187Z,71.50
2023-01-04T01:00:01.187Z,68.70
2023-01-04T01:03:32.104Z,67.50
2023-01-04T01:07:01.880Z,71.80
2023-01-04T01:10:29.036Z,74.40
2023-01-04T01:13:56.280Z,82.70
2023-01-04T01:17:24.012Z,77.80
2023-01-04T01:20:51.028Z,83.70
2023-01-04T01:24:20.388Z,75.70
2023-01-04T01:27:47.284Z,84.00
2023-01-04T01:31:17.648Z,84.30
2023-01-04T01:34:47.349Z,81.10
2023-01-04T01:38:14.610Z,83.00
2023-01-04T01:41:41.963Z,87.80
2023-01-04T01:45:22.838Z,92.30
2023-01-04T01:48:51.094Z,98.30
2023-01-04T01:52:24.100Z,105.70
2023-01-04T01:55:52.792Z,101.60
2023-01-04T01:59:21.416Z,74.70
2023-01-04T02:02:57.097Z,116.50
2023-01-04T02:06:31.041Z,136.60
2023-01-04T02:09:59.702Z,143.80
2023-01-04T02:13:50.782Z,142.90
2023-01-04T02:17:23.736Z,130.60
2023-01-04T02:20:56.976Z,122.50
2023-01-04T02:24:44.964Z,128.30
2023-01-04T02:28:18.185Z,133.90
2023-01-04T02:31:51.868Z,149.30
2023-01-04T02:35:26.615Z,145.10
2023-01-04T02:39:06.878Z,138.20
2023-01-04T02:42:59.840Z,141.50
2023-01-04T02:46:32.545Z,141.00
2023-01-04T02:50:16.318Z,110.60
2023-01-04T02:53:44.044Z,131.50
2023-01-04T02:57:33.256Z,129.50
2023-01-04T03:01:25.903Z,124.30
2023-01-04T03:05:20.920Z,126.40
2023-01-04T03:08:57.357Z,113.40
2023-01-04T03:12:34.382Z,111.30
2023-01-04T03:16:07.954Z,96.40
2023-01-04T03:19:54.371Z,79.90
2023-01-04T03:23:44.587Z,81.80
2023-01-04T03:27:29.672Z,72.80
2023-01-04T03:31:21.798Z,65.50
2023-01-04T03:35:07.026Z,62.60
2023-01-04T03:38:58.680Z,65.00
2023-01-04T03:42:51.874Z,57.70
2023-01-04T03:46:43.372Z,68.80
2023-01-04T03:50:16.167Z,63.80
2023-01-04T03:53:49.016Z,56.50
2023-01-04T03:57:17.797Z,55.50
2023-01-04T04:00:49.667Z,45.90
2023-01-04T04:04:34.205Z,50.90
2023-01-04T04:08:19.088Z,52.20
2023-01-04T04:11:46.381Z,50.80
2023-01-04T04:15:14.056Z,46.00
2023-01-04T04:18:41.161Z,46.50
2023-01-04T04:22:08.169Z,49.70
2023-01-04T04:25:37.800Z,43.70
2023-01-04T04:32:33.735Z,41.10
2023-01-04T04:36:02.526Z,42.60
2023-01-04T04:39:29.595Z,38.50
2023-01-04T04:42:56.503Z,42.10
2023-01-04T04:46:23.651Z,41.00
2023-01-04T04:49:51.959Z,41.20
2023-01-04T04:53:19.258Z,37.10
2023-01-04T04:56:46.510Z,38.50
2023-01-04T05:00:17.938Z,40.30
2023-01-04T05:03:45.000Z,32.50
2023-01-04T05:07:12.787Z,37.40
2023-01-04T05:10:40.389Z,35.70
2023-01-04T05:14:08.778Z,35.70
2023-01-04T05:17:35.761Z,39.10
2023-01-04T05:21:03.357Z,33.70
2023-01-04T05:24:30.257Z,32.50
2023-01-04T05:27:59.734Z,38.00
2023-01-04T05:31:27.270Z,35.10
2023-01-04T05:34:54.232Z,38.50
2023-01-04T05:38:22.147Z,36.60
2023-01-04T05:42:06.790Z,37.10
2023-01-04T05:45:35.630Z,41.80
2023-01-04T05:49:02.660Z,40.80
2023-01-04T05:52:30.050Z,46.50
2023-01-04T05:55:58.853Z,41.60
2023-01-04T05:59:26.192Z,45.60
2023-01-04T06:02:57.287Z,40.80
2023-01-04T06:06:24.393Z,41.70
2023-01-04T06:09:54.180Z,41.00
2023-01-04T06:13:21.711Z,37.60
2023-01-04T06:16:50.759Z,38.60
2023-01-04T06:20:17.874Z,36.00
2023-01-04T06:23:44.860Z,40.40
2023-01-04T06:27:11.891Z,37.30
2023-01-04T06:30:38.912Z,33.70
2023-01-04T06:34:06.199Z,35.30
2023-01-04T06:37:33.324Z,39.70
2023-01-04T06:41:00.212Z,34.00
2023-01-04T06:44:27.090Z,33.90
2023-01-04T06:47:53.907Z,35.80
2023-01-04T06:51:20.841Z,34.00
2023-01-04T06:54:47.760Z,35.50
2023-01-04T06:58:14.583Z,37.60
2023-01-04T07:01:44.262Z,30.80
2023-01-04T07:08:37.945Z,35.30
2023-01-04T07:12:05.124Z,33.20
2023-01-04T07:15:38.656Z,33.80
2023-01-04T07:19:09.927Z,32.60
2023-01-04T07:22:36.855Z,35.70
2023-01-04T07:26:05.343Z,34.40
2023-01-04T07:29:35.164Z,38.10
2023-01-04T07:36:27.904Z,28.00
2023-01-04T07:39:54.906Z,29.00
2023-01-04T07:43:27.670Z,32.40
2023-01-04T07:46:56.567Z,31.40
2023-01-04T07:50:26.977Z,27.50
2023-01-04T07:53:54.108Z,29.10
2023-01-04T07:57:21.982Z,27.70
2023-01-04T08:00:49.053Z,23.80
2023-01-04T08:04:16.761Z,24.80
2023-01-04T08:07:43.960Z,23.40
2023-01-04T08:11:14.376Z,25.60
2023-01-04T08:14:41.446Z,31.00
2023-01-04T08:18:08.692Z,21.90
2023-01-04T08:21:39.961Z,20.70
2023-01-04T08:25:08.074Z,19.70
2023-01-04T08:28:36.581Z,19.80
2023-01-04T08:32:07.628Z,21.00
2023-01-04T08:35:34.772Z,22.20
2023-01-04T08:39:04.858Z,20.60
2023-01-04T08:42:32.259Z,18.50
2023-01-04T08:45:59.876Z,20.40
2023-01-04T08:49:28.195Z,20.60
2023-01-04T08:52:55.580Z,18.00
2023-01-04T08:56:22.616Z,17.40
2023-01-04T08:59:50.074Z,21.00
2023-01-04T09:03:17.075Z,16.20
2023-01-04T09:06:56.186Z,16.30
2023-01-04T09:10:23.349Z,19.40
2023-01-04T09:13:51.446Z,17.00
2023-01-04T09:17:18.355Z,18.20
2023-01-04T09:20:45.662Z,16.80
2023-01-04T09:24:14.106Z,16.20
2023-01-04T09:27:41.418Z,17.00
2023-01-04T09:31:16.235Z,17.30
2023-01-04T09:34:43.368Z,21.20
2023-01-04T09:38:10.882Z,20.10
2023-01-04T09:41:44.376Z,16.70
2023-01-04T09:45:24.503Z,18.80
2023-01-04T09:48:55.220Z,23.10
2023-01-04T09:52:26.528Z,21.10
2023-01-04T09:55:57.435Z,17.90
2023-01-04T09:59:31.052Z,19.10
2023-01-04T10:03:05.028Z,17.40
2023-01-04T10:06:38.284Z,20.60
2023-01-04T10:10:06.165Z,20.20
2023-01-04T10:13:50.151Z,20.30
2023-01-04T10:18:10.347Z,20.50
2023-01-04T10:21:34.283Z,21.80
2023-01-04T10:25:19.164Z,23.40
2023-01-04T10:29:06.809Z,22.90
2023-01-04T10:32:40.874Z,19.50
2023-01-04T10:36:24.567Z,18.90
2023-01-04T10:39:55.194Z,21.90
2023-01-04T10:44:09.874Z,20.50
2023-01-04T10:47:24.736Z,19.80
2023-01-04T10:51:03.554Z,15.70
2023-01-04T10:54:45.029Z,19.50
2023-01-04T10:58:21.014Z,17.40
2023-01-04T11:01:52.076Z,14.90
2023-01-04T11:05:25.572Z,14.90
2023-01-04T11:08:56.347Z,17.20
2023-01-04T11:12:24.838Z,15.30
2023-01-04T11:15:53.197Z,15.40
2023-01-04T11:19:21.132Z,21.50
2023-01-04T11:22:54.707Z,22.90
2023-01-04T11:26:33.037Z,18.40
2023-01-04T11:30:05.115Z,17.00
2023-01-04T11:33:51.640Z,19.30
2023-01-04T11:37:34.541Z,21.10
2023-01-04T11:41:05.634Z,26.70
2023-01-04T11:44:34.743Z,20.40
2023-01-04T11:48:10.855Z,19.20
2023-01-04T11:55:29.215Z,21.80
2023-01-04T11:59:20.645Z,21.50
2023-01-04T12:03:01.575Z,21.20
2023-01-04T12:06:36.429Z,18.30
2023-01-04T12:10:13.832Z,23.50
2023-01-04T12:13:43.936Z,19.00
2023-01-04T12:17:20.427Z,27.90
2023-01-04T12:20:47.847Z,22.00
2023-01-04T12:24:26.472Z,19.10
2023-01-04T12:27:55.537Z,22.00
2023-01-04T12:31:35.846Z,19.10
2023-01-04T12:35:02.723Z,17.70
2023-01-04T12:39:07.590Z,16.80
2023-01-04T12:42:34.814Z,16.50
2023-01-04T12:46:59.117Z,17.00
2023-01-04T12:50:29.183Z,16.70
2023-01-04T12:53:59.237Z,18.40
2023-01-04T12:57:37.284Z,16.80
2023-01-04T13:01:28.512Z,19.10
2023-01-04T13:05:25.752Z,15.70
2023-01-04T13:08:53.164Z,18.90
2023-01-04T13:12:37.413Z,16.30
2023-01-04T13:16:29.209Z,13.70
2023-01-04T13:19:57.112Z,18.30
2023-01-04T13:23:25.663Z,14.00
2023-01-04T13:26:53.904Z,13.30
2023-01-04T13:30:34.427Z,16.10
2023-01-04T13:34:01.317Z,15.10
2023-01-04T13:37:33.683Z,15.50
2023-01-04T13:41:00.583Z,18.70
2023-01-04T13:45:18.716Z,15.90
2023-01-04T13:48:40.974Z,16.20
2023-01-04T13:52:49.778Z,15.50
2023-01-04T13:56:22.476Z,22.20
2023-01-04T13:59:52.410Z,15.90
2023-01-04T14:03:34.087Z,14.80
2023-01-04T14:07:02.862Z,17.50
2023-01-04T14:10:30.021Z,19.90
2023-01-04T14:13:56.998Z,16.00
2023-01-04T14:17:29.715Z,14.60
2023-01-04T14:20:56.728Z,14.70
2023-01-04T14:25:10.529Z,21.30
2023-01-04T14:28:40.337Z,16.80
2023-01-04T14:32:13.931Z,15.80
2023-01-04T14:35:46.430Z,16.60
2023-01-04T14:39:28.981Z,15.50
2023-01-04T14:42:56.923Z,15.10
2023-01-04T14:46:24.881Z,14.70
2023-01-04T14:49:52.439Z,20.10
2023-01-04T14:53:21.354Z,16.50
2023-01-04T14:56:48.397Z,17.30
2023-01-04T15:00:19.763Z,20.30
2023-01-04T15:03:47.203Z,15.00
2023-01-04T15:07:35.300Z,14.90
2023-01-04T15:11:02.493Z,19.70
2023-01-04T15:14:29.576Z,17.80
2023-01-04T15:17:56.438Z,18.30
2023-01-04T15:21:23.376Z,17.60
2023-01-04T15:24:51.029Z,18.60
2023-01-04T15:28:21.662Z,20.20
2023-01-04T15:31:49.148Z,15.10
2023-01-04T15:35:17.684Z,19.10
2023-01-04T15:38:44.897Z,20.60
2023-01-04T15:42:34.436Z,20.00
2023-01-04T15:46:08.575Z,19.50
2023-01-04T15:49:36.024Z,20.90
2023-01-04T15:53:03.348Z,21.50
2023-01-04T15:56:30.436Z,20.70
2023-01-04T15:59:57.360Z,18.50
2023-01-04T16:03:24.389Z,17.80
2023-01-04T16:06:51.505Z,21.00
2023-01-04T16:10:19.056Z,22.30
2023-01-04T16:13:47.644Z,20.30
2023-01-04T16:17:14.543Z,16.10
2023-01-04T16:20:47.315Z,22.30
2023-01-04T16:24:44.877Z,22.50
2023-01-04T16:28:02.091Z,21.80
2023-01-04T16:31:33.478Z,19.00
2023-01-04T16:35:00.321Z,20.60
2023-01-04T16:38:28.016Z,19.00
2023-01-04T16:41:55.588Z,19.30
2023-01-04T16:45:25.787Z,20.50
2023-01-04T16:48:54.877Z,21.40
2023-01-04T16:52:21.847Z,20.60
2023-01-04T16:55:50.496Z,18.10
2023-01-04T16:59:20.088Z,16.30
2023-01-04T17:02:46.913Z,19.50
2023-01-04T17:06:19.846Z,15.90
2023-01-04T17:09:46.883Z,19.60
2023-01-04T17:13:13.820Z,19.50
2023-01-04T17:16:40.996Z,19.90
2023-01-04T17:20:10.167Z,19.20
2023-01-04T17:23:42.831Z,19.50
2023-01-04T17:30:51.585Z,20.30
2023-01-04T17:34:23.195Z,17.30
2023-01-04T17:37:50.897Z,21.30
2023-01-04T17:41:20.324Z,20.30
2023-01-04T17:44:49.513Z,19.20
2023-01-04T17:48:18.808Z,25.20
2023-01-04T17:51:46.661Z,18.40
2023-01-04T17:55:14.218Z,21.70
2023-01-04T17:58:43.453Z,22.30
2023-01-04T18:05:45.297Z,22.20
2023-01-04T18:09:22.263Z,25.30
2023-01-04T18:12:51.213Z,18.90
2023-01-04T18:16:25.343Z,22.10
2023-01-04T18:19:52.523Z,20.50
2023-01-04T18:23:25.751Z,17.50
2023-01-04T18:27:20.419Z,17.90
2023-01-04T18:30:40.659Z,21.30
2023-01-04T18:34:07.726Z,18.10
2023-01-04T18:37:35.539Z,19.30
2023-01-04T18:41:04.508Z,19.70
2023-01-04T18:44:35.908Z,21.50
2023-01-04T18:48:04.110Z,18.00
2023-01-04T18:51:31.049Z,18.80
2023-01-04T18:55:00.137Z,16.40
2023-01-04T18:58:26.948Z,20.00
2023-01-04T19:01:54.033Z,18.00
2023-01-04T19:05:21.187Z,20.50
2023-01-04T19:08:53.590Z,23.60
2023-01-04T19:12:23.311Z,17.60
2023-01-04T19:15:50.512Z,21.40
2023-01-04T19:19:17.622Z,21.60
2023-01-04T19:22:44.601Z,18.90
2023-01-04T19:26:14.206Z,17.20
2023-01-04T19:29:41.157Z,18.30
2023-01-04T19:33:09.217Z,18.00
2023-01-04T19:36:39.336Z,17.00
2023-01-04T19:40:07.856Z,18.70
2023-01-04T19:43:35.193Z,17.60
2023-01-04T19:47:02.509Z,19.90
2023-01-04T19:50:29.810Z,17.50
2023-01-04T19:54:01.512Z,17.60
2023-01-04T19:57:28.476Z,15.10
2023-01-04T20:00:55.590Z,18.70
2023-01-04T20:04:22.736Z,17.30
2023-01-04T20:07:50.898Z,17.50
2023-01-04T20:11:18.133Z,16.80
2023-01-04T20:14:46.977Z,14.80
2023-01-04T20:18:14.558Z,19.40
2023-01-04T20:21:41.857Z,36.10
2023-01-04T20:25:10.956Z,21.00
2023-01-04T20:28:38.656Z,18.70
2023-01-04T20:32:06.218Z,18.80
2023-01-04T20:35:33.116Z,21.80
2023-01-04T20:39:03.514Z,19.20
2023-01-04T20:42:48.412Z,17.00
2023-01-04T20:46:17.890Z,17.60
2023-01-04T20:49:45.053Z,17.40
2023-01-04T20:53:13.456Z,19.50
2023-01-04T20:56:40.964Z,22.90
2023-01-04T21:00:10.674Z,29.50
2023-01-04T21:03:38.854Z,33.90
2023-01-04T21:07:06.181Z,20.70
2023-01-04T21:10:33.137Z,17.70
2023-01-04T21:14:01.905Z,17.40
2023-01-04T21:17:28.757Z,15.50
2023-01-04T21:20:56.250Z,23.20
2023-01-04T21:24:23.310Z,23.90
2023-01-04T21:27:52.773Z,15.20
2023-01-04T21:31:23.814Z,23.50
2023-01-04T21:34:50.883Z,19.70
2023-01-04T21:38:17.712Z,12.80
2023-01-04T21:41:51.229Z,17.30
2023-01-04T21:45:19.569Z,12.00
2023-01-04T21:48:47.684Z,8.60
2023-01-04T21:52:18.835Z,4.90
2023-01-04T21:55:45.904Z,5.50
2023-01-04T21:59:12.911Z,4.40
2023-01-04T22:02:42.468Z,2.90
2023-01-04T22:09:36.823Z,5.70
2023-01-04T22:13:12.644Z,5.70
2023-01-04T22:16:40.085Z,6.80
2023-01-04T22:20:11.187Z,9.50
2023-01-04T22:23:38.782Z,5.50
2023-01-04T22:27:06.234Z,6.10
2023-01-04T22:30:33.600Z,7.40
2023-01-04T22:34:00.677Z,5.60
2023-01-04T22:37:27.708Z,5.10
2023-01-04T22:40:54.585Z,3.40
2023-01-04T22:44:21.641Z,2.20
2023-01-04T22:47:48.919Z,3.30
2023-01-04T22:51:18.285Z,3.60
2023-01-04T22:54:45.241Z,2.00
2023-01-04T22:58:12.243Z,2.90
2023-01-04T23:01:39.234Z,3.50
2023-01-04T23:05:07.161Z,1.90
2023-01-04T23:08:33.999Z,2.90
2023-01-04T23:12:01.091Z,2.80
2023-01-04T23:15:28.095Z,2.90
2023-01-04T23:18:55.007Z,3.10
2023-01-04T23:22:22.711Z,4.50
2023-01-04T23:25:49.554Z,3.50
2023-01-04T23:29:16.638Z,5.30
2023-01-04T23:32:44.234Z,5.40
2023-01-04T23:36:14.200Z,3.60
2023-01-04T23:39:41.634Z,4.00
2023-01-04T23:43:08.557Z,3.80
2023-01-04T23:46:35.628Z,6.70
2023-01-04T23:50:02.557Z,3.40
2023-01-04T23:53:29.986Z,6.30
2023-01-04T23:56:58.004Z,4.30
